Lees Creek, OH

7:54 AM EDT on October 18, 2019 (GMT -0400)
Lees Creek - Bond Farms | | Change Station
Active Advisory: Frost Advisory

Elev 1083 ft 39.42 °N, 83.66 °W | Updated 8 minutes ago

Clear
Clear
32 °F
Feels Like 32 °F
N
2
Wind Variable Wind from SW
Gusts 3.0 mph

Today
High -- | Low -- °F
--% Chance of Precip.
Yesterday
High -- | Low -- °F
Precip. -- in
Pressure 30.13 in
Visibility 4.0 miles
Clouds Clear
Windchill 32 °F
Dew Point 28 °F
Humidity 84%
Rainfall 0.00 in
Snow Depth Not available.
7:47 AM 6:51 PM
Waning Gibbous, 80% visible
METAR KILN 181054Z AUTO 24003KT 4SM BR CLR 01/00 A3008 RMK AO2 SLP202 T00060000
Pressure 30.13 in
Visibility 4.0 miles
Clouds Clear
Windchill 32 °F
Dew Point 28 °F
Humidity 84%
Rainfall 0.00 in
Snow Depth Not available.
7:47 AM 6:51 PM
Waning Gibbous, 80% visible
METAR KILN 181054Z AUTO 24003KT 4SM BR CLR 01/00 A3008 RMK AO2 SLP202 T00060000

Get Your Daily Forecast Email!

Thanks for signing up!

Be on the lookout for a verification email in your inbox.

You'll start receiving severe weather alerts in your inbox..

×

10-Day Weather Forecast

Almanac

Astronomy

Oct. 18, 2019 Rise Set
Actual Time
Civil Twilight
Nautical Twilight
Astronomical Twilight
Moon
Length of Visible Light
Length of Day
Tomorrow will be .
, % of the Moon is Illuminated

Today's Extremes

State Highs State Lows

Community

WunderPhotos

Category 6

Welcome to Category 6. This is the collective home for Weather Underground's featured writeups by Dr. Jeff Masters (right), Bob Henson (left), Chris Burt, and other regular contributors.

Nearby

Air Quality

  Air Quality AQ Index Pollutant
Not available.

Snow Depth

Station Depth Elevation

Earthquake Activity

City Distance Mag. Time & Date
Minimum magnitude displayed is 2.5.

Coastal Water Temperatures

Place Temperature

Stations

Nearby Weather Stations

Station Location Temp. Windchill Dew Point Humidity Wind Precip. Elev Updated Type
                   

Watches & Warnings

Frost Advisory
Issued: 3:40 AM EDT Oct. 18, 2019 – National Weather Service

... Frost advisory remains in effect until 10 am EDT this
morning...

* what... low temperatures in the middle 30s will result in frost
formation.

* Where... portions of east central and southeast Indiana,
northeast and northern Kentucky and central, south central,
southwest and west central Ohio.

* When... through 10 am EDT this morning.

* Impacts... frost could kill sensitive outdoor vegetation if
left uncovered.

* Additional details... take necessary precautions to protect
tender vegetation.

Precautionary/preparedness actions...

Take steps now to protect tender plants from the cold.